createdAt,value
2018-06-25T00:01:26.724Z,3.12
2018-06-25T00:03:55.113Z,3.10
2018-06-25T00:06:23.596Z,3.22
2018-06-25T00:08:51.995Z,2.80
2018-06-25T00:11:20.425Z,4.12
2018-06-25T00:13:48.823Z,3.37
2018-06-25T00:16:17.270Z,3.58
2018-06-25T00:18:45.686Z,4.12
2018-06-25T00:21:14.129Z,3.47
2018-06-25T00:23:42.561Z,3.62
2018-06-25T00:26:10.997Z,3.67
2018-06-25T00:28:39.441Z,4.70
2018-06-25T00:31:07.869Z,4.10
2018-06-25T00:33:36.273Z,4.55
2018-06-25T00:36:04.825Z,4.15
2018-06-25T00:38:33.234Z,4.55
2018-06-25T00:41:01.717Z,4.00
2018-06-25T00:43:30.111Z,4.72
2018-06-25T00:45:58.546Z,4.37
2018-06-25T00:48:26.933Z,4.15
2018-06-25T00:50:55.387Z,4.42
2018-06-25T00:53:23.947Z,5.45
2018-06-25T00:55:52.400Z,4.45
2018-06-25T00:58:20.807Z,5.08
2018-06-25T01:00:49.293Z,5.03
2018-06-25T01:03:17.717Z,4.95
2018-06-25T01:05:46.199Z,5.00
2018-06-25T01:08:14.577Z,5.50
2018-06-25T01:10:43.060Z,5.42
2018-06-25T01:13:11.496Z,5.58
2018-06-25T01:15:39.990Z,5.42
2018-06-25T01:18:08.429Z,5.12
2018-06-25T01:20:36.900Z,5.37
2018-06-25T01:23:05.668Z,5.33
2018-06-25T01:25:34.964Z,5.42
2018-06-25T01:28:03.339Z,5.42
2018-06-25T01:30:31.772Z,4.72
2018-06-25T01:33:00.201Z,5.25
2018-06-25T01:35:28.632Z,5.22
2018-06-25T01:37:57.051Z,5.08
2018-06-25T01:40:25.477Z,5.28
2018-06-25T01:42:53.876Z,5.50
2018-06-25T01:45:22.424Z,5.60
2018-06-25T01:47:50.829Z,5.33
2018-06-25T01:50:19.231Z,6.33
2018-06-25T01:52:47.676Z,6.45
2018-06-25T01:55:16.093Z,6.40
2018-06-25T01:57:44.627Z,4.95
2018-06-25T02:00:13.072Z,5.30
2018-06-25T02:02:41.539Z,4.95
2018-06-25T02:05:09.990Z,5.58
2018-06-25T02:07:38.420Z,5.60
2018-06-25T02:10:06.881Z,6.42
2018-06-25T02:12:35.332Z,5.10
2018-06-25T02:15:03.842Z,5.78
2018-06-25T02:17:31.991Z,5.35
2018-06-25T02:20:00.444Z,5.87
2018-06-25T02:22:28.932Z,6.08
2018-06-25T02:24:57.320Z,5.53
2018-06-25T02:27:25.789Z,6.22
2018-06-25T02:29:54.284Z,5.87
2018-06-25T02:32:22.737Z,5.85
2018-06-25T02:34:51.114Z,5.42
2018-06-25T02:37:19.599Z,5.40
2018-06-25T02:39:48.026Z,5.53
2018-06-25T02:42:16.475Z,6.03
2018-06-25T02:44:44.894Z,5.10
2018-06-25T02:47:13.378Z,5.97
2018-06-25T02:49:41.777Z,6.10
2018-06-25T02:52:10.260Z,5.33
2018-06-25T02:54:38.671Z,6.05
2018-06-25T02:57:07.124Z,5.70
2018-06-25T02:59:35.248Z,5.33
2018-06-25T03:02:03.714Z,6.37
2018-06-25T03:04:32.165Z,6.55
2018-06-25T03:07:00.628Z,5.75
2018-06-25T03:09:29.076Z,5.87
2018-06-25T03:11:57.500Z,5.15
2018-06-25T03:14:25.917Z,7.12
2018-06-25T03:16:54.400Z,6.08
2018-06-25T03:19:22.800Z,6.08
2018-06-25T03:21:51.255Z,5.85
2018-06-25T03:24:19.664Z,6.25
2018-06-25T03:26:48.145Z,6.37
2018-06-25T03:29:16.600Z,6.42
2018-06-25T03:31:45.070Z,7.22
2018-06-25T03:34:13.488Z,6.67
2018-06-25T03:36:41.592Z,7.65
2018-06-25T03:39:11.309Z,6.97
2018-06-25T03:41:39.833Z,7.83
2018-06-25T03:44:08.294Z,4.95
2018-06-25T03:46:36.693Z,5.85
2018-06-25T03:49:04.892Z,6.58
2018-06-25T03:51:33.299Z,6.50
2018-06-25T03:54:01.766Z,6.92
2018-06-25T03:56:30.212Z,5.87
2018-06-25T03:58:58.625Z,7.03
2018-06-25T04:01:27.056Z,5.67
2018-06-25T04:03:55.500Z,4.67
2018-06-25T04:06:23.922Z,5.33
2018-06-25T04:08:52.363Z,4.72
2018-06-25T04:11:20.769Z,4.97
2018-06-25T04:13:49.190Z,4.67
2018-06-25T04:16:17.618Z,4.85
2018-06-25T04:18:50.163Z,6.05
2018-06-25T04:21:18.605Z,5.30
2018-06-25T04:23:47.096Z,4.87
2018-06-25T04:26:15.461Z,5.65
2018-06-25T04:28:43.912Z,4.80
2018-06-25T04:31:12.365Z,5.40
2018-06-25T04:33:40.804Z,5.55
2018-06-25T04:36:09.262Z,5.30
2018-06-25T04:38:37.903Z,4.85
2018-06-25T04:41:06.388Z,5.35
2018-06-25T04:43:34.533Z,4.50
2018-06-25T04:46:02.933Z,4.35
2018-06-25T04:48:31.356Z,4.85
2018-06-25T04:50:59.835Z,5.00
2018-06-25T04:53:28.250Z,5.70
2018-06-25T04:55:56.686Z,4.42
2018-06-25T04:58:25.304Z,3.72
2018-06-25T05:00:53.816Z,4.35
2018-06-25T05:03:22.281Z,3.77
2018-06-25T05:05:50.815Z,4.67
2018-06-25T05:08:19.273Z,4.05
2018-06-25T05:10:47.723Z,4.92
2018-06-25T05:13:16.207Z,4.62
2018-06-25T05:15:44.621Z,5.00
2018-06-25T05:18:13.037Z,5.58
2018-06-25T05:20:41.468Z,5.72
2018-06-25T05:23:09.893Z,5.00
2018-06-25T05:25:38.361Z,4.70
2018-06-25T05:28:06.901Z,4.47
2018-06-25T05:30:35.389Z,4.25
2018-06-25T05:33:03.809Z,4.22
2018-06-25T05:35:32.251Z,4.22
2018-06-25T05:38:00.669Z,3.85
2018-06-25T05:40:29.098Z,4.03
2018-06-25T05:42:57.574Z,3.52
2018-06-25T05:45:26.180Z,4.12
2018-06-25T05:47:54.672Z,4.45
2018-06-25T05:50:23.177Z,3.77
2018-06-25T05:52:51.610Z,4.65
2018-06-25T05:55:20.072Z,4.12
2018-06-25T05:57:48.485Z,3.90
2018-06-25T06:00:16.946Z,4.20
2018-06-25T06:02:45.371Z,4.20
2018-06-25T06:05:13.839Z,4.05
2018-06-25T06:07:42.258Z,4.08
2018-06-25T06:10:10.745Z,3.70
2018-06-25T06:12:39.221Z,3.15
2018-06-25T06:15:07.824Z,3.02
2018-06-25T06:17:36.248Z,3.12
2018-06-25T06:20:05.021Z,3.00
2018-06-25T06:22:33.475Z,2.65
2018-06-25T06:25:01.921Z,2.87
2018-06-25T06:27:30.324Z,3.10
2018-06-25T06:29:58.989Z,3.02
2018-06-25T06:32:27.570Z,3.25
2018-06-25T06:34:55.703Z,3.77
2018-06-25T06:37:24.137Z,3.67
2018-06-25T06:39:52.611Z,4.35
2018-06-25T06:42:21.054Z,3.37
2018-06-25T06:44:49.500Z,4.05
2018-06-25T06:47:17.913Z,3.10
2018-06-25T06:49:46.325Z,2.90
2018-06-25T06:52:14.804Z,3.02
2018-06-25T06:54:43.248Z,2.80
2018-06-25T06:57:11.705Z,3.15
2018-06-25T06:59:40.157Z,3.40
2018-06-25T07:02:08.949Z,3.00
2018-06-25T07:04:37.393Z,3.40
2018-06-25T07:07:06.199Z,3.50
2018-06-25T07:09:34.637Z,2.92
2018-06-25T07:12:03.153Z,2.17
2018-06-25T07:14:31.561Z,1.85
2018-06-25T07:17:00.049Z,1.98
2018-06-25T07:19:28.617Z,2.40
2018-06-25T07:21:58.446Z,2.72
2018-06-25T07:24:27.372Z,2.02
2018-06-25T07:26:56.019Z,2.15
2018-06-25T07:29:24.458Z,2.15
2018-06-25T07:31:53.454Z,2.20
2018-06-25T07:34:21.942Z,2.42
2018-06-25T07:36:50.447Z,1.80
2018-06-25T07:39:18.547Z,2.25
2018-06-25T07:41:47.155Z,1.40
2018-06-25T07:44:15.587Z,1.50
2018-06-25T07:46:44.036Z,1.80
2018-06-25T07:49:12.469Z,2.12
2018-06-25T07:51:40.912Z,2.50
2018-06-25T07:54:09.411Z,2.55
2018-06-25T07:56:37.872Z,2.42
2018-06-25T07:59:06.544Z,2.70
2018-06-25T08:01:35.037Z,2.65
2018-06-25T08:04:03.508Z,3.10
2018-06-25T08:06:32.025Z,2.62
2018-06-25T08:09:00.477Z,2.67
2018-06-25T08:11:29.045Z,2.80
2018-06-25T08:13:57.534Z,2.70
2018-06-25T08:16:25.999Z,2.90
2018-06-25T08:18:54.472Z,2.87
2018-06-25T08:21:22.957Z,2.35
2018-06-25T08:23:51.393Z,2.42
2018-06-25T08:26:19.908Z,2.52
2018-06-25T08:28:48.543Z,2.20
2018-06-25T08:31:17.079Z,2.40
2018-06-25T08:33:45.598Z,2.02
2018-06-25T08:36:13.993Z,2.22
2018-06-25T08:38:42.447Z,2.37
2018-06-25T08:41:10.853Z,2.05
2018-06-25T08:43:39.302Z,2.60
2018-06-25T08:46:07.736Z,1.90
2018-06-25T08:48:36.214Z,1.67
2018-06-25T08:51:04.666Z,1.50
2018-06-25T08:53:33.169Z,1.00
2018-06-25T08:56:01.594Z,0.68
2018-06-25T08:58:30.081Z,1.32
2018-06-25T09:00:58.480Z,1.00
2018-06-25T09:03:27.340Z,1.10
2018-06-25T09:05:55.779Z,1.32
2018-06-25T09:08:24.236Z,1.10
2018-06-25T09:10:52.656Z,1.42
2018-06-25T09:13:21.169Z,1.10
2018-06-25T09:15:49.672Z,0.70
2018-06-25T09:18:18.136Z,0.80
2018-06-25T09:20:46.570Z,1.25
2018-06-25T09:23:15.042Z,0.88
2018-06-25T09:25:43.482Z,1.00
2018-06-25T09:28:11.986Z,1.27
2018-06-25T09:30:40.381Z,2.20
2018-06-25T09:33:08.976Z,2.27
2018-06-25T09:35:37.393Z,2.27
2018-06-25T09:38:06.102Z,1.90
2018-06-25T09:40:34.512Z,2.20
2018-06-25T09:43:03.005Z,2.60
2018-06-25T09:45:31.401Z,2.15
2018-06-25T09:47:59.818Z,2.10
2018-06-25T09:50:28.284Z,2.70
2018-06-25T09:52:56.689Z,1.87
2018-06-25T09:55:25.110Z,2.42
2018-06-25T09:57:53.520Z,2.25
2018-06-25T10:00:27.443Z,2.37
2018-06-25T10:02:55.873Z,2.65
2018-06-25T10:05:24.429Z,2.50
2018-06-25T10:07:52.869Z,2.12
2018-06-25T10:10:21.309Z,2.00
2018-06-25T10:12:49.920Z,1.92
2018-06-25T10:15:18.437Z,1.90
2018-06-25T10:17:46.870Z,1.90
2018-06-25T10:20:15.532Z,2.15
2018-06-25T10:22:44.069Z,1.82
2018-06-25T10:25:12.576Z,2.15
2018-06-25T10:27:41.003Z,2.02
2018-06-25T10:30:09.537Z,1.77
2018-06-25T10:32:37.953Z,1.65
2018-06-25T10:35:06.448Z,2.20
2018-06-25T10:37:34.836Z,2.17
2018-06-25T10:40:03.320Z,2.22
2018-06-25T10:42:31.773Z,1.85
2018-06-25T10:45:00.201Z,2.00
2018-06-25T10:47:28.676Z,1.70
2018-06-25T10:49:57.127Z,2.08
2018-06-25T10:52:25.532Z,1.80
2018-06-25T10:54:53.685Z,2.17
2018-06-25T10:57:22.102Z,1.90
2018-06-25T10:59:50.709Z,2.00
2018-06-25T11:02:19.099Z,1.70
2018-06-25T11:04:47.553Z,1.70
2018-06-25T11:07:16.076Z,1.80
2018-06-25T11:09:44.489Z,1.98
2018-06-25T11:12:12.918Z,2.10
2018-06-25T11:14:41.352Z,1.75
2018-06-25T11:17:09.953Z,1.85
2018-06-25T11:19:38.380Z,1.80
2018-06-25T11:22:06.849Z,1.80
2018-06-25T11:24:35.304Z,1.65
2018-06-25T11:27:03.807Z,1.70
2018-06-25T11:29:32.371Z,2.05
2018-06-25T11:32:00.802Z,1.75
2018-06-25T11:34:29.249Z,1.77
2018-06-25T11:36:57.693Z,1.90
2018-06-25T11:39:26.078Z,1.45
2018-06-25T11:41:54.527Z,1.47
2018-06-25T11:44:22.933Z,1.60
2018-06-25T11:46:51.357Z,1.57
2018-06-25T11:49:19.764Z,1.60
2018-06-25T11:51:48.301Z,1.42
2018-06-25T11:54:16.748Z,1.50
2018-06-25T11:56:45.197Z,1.45
2018-06-25T11:59:13.605Z,1.30
2018-06-25T12:01:42.061Z,1.12
2018-06-25T12:04:10.431Z,1.35
2018-06-25T12:06:39.449Z,1.30
2018-06-25T12:09:08.929Z,1.10
2018-06-25T12:11:37.372Z,1.10
2018-06-25T12:14:06.685Z,0.80
2018-06-25T12:16:35.200Z,0.90
2018-06-25T12:19:03.691Z,0.70
2018-06-25T12:21:32.087Z,0.70
2018-06-25T12:24:00.708Z,0.90
2018-06-25T12:26:29.144Z,1.00
2018-06-25T12:28:57.596Z,0.70
2018-06-25T12:31:26.226Z,0.90
2018-06-25T12:33:54.634Z,0.70
2018-06-25T12:36:23.114Z,0.90
2018-06-25T12:38:51.552Z,1.00
2018-06-25T12:41:20.011Z,1.00
2018-06-25T12:43:48.410Z,0.90
2018-06-25T12:46:16.881Z,0.78
2018-06-25T12:48:45.338Z,0.72
2018-06-25T12:51:13.777Z,0.70
2018-06-25T12:53:42.244Z,0.78
2018-06-25T12:56:10.696Z,0.75
2018-06-25T12:58:39.103Z,0.80
2018-06-25T13:01:07.552Z,0.80
2018-06-25T13:03:36.011Z,0.78
2018-06-25T13:06:04.542Z,1.42
2018-06-25T13:08:33.077Z,0.70
2018-06-25T13:11:01.521Z,0.78
2018-06-25T13:13:30.091Z,0.70
2018-06-25T13:15:58.589Z,0.70
2018-06-25T13:18:27.329Z,0.70
2018-06-25T13:20:55.753Z,0.90
2018-06-25T13:23:24.218Z,0.90
2018-06-25T13:25:52.707Z,0.93
2018-06-25T13:28:21.288Z,0.90
2018-06-25T13:30:49.730Z,1.10
2018-06-25T13:33:17.868Z,0.82
2018-06-25T13:35:46.298Z,1.10
2018-06-25T13:38:14.827Z,0.75
2018-06-25T13:40:43.282Z,0.90
2018-06-25T13:43:11.708Z,0.80
2018-06-25T13:45:40.356Z,1.00
2018-06-25T13:48:08.592Z,0.85
2018-06-25T13:50:36.993Z,0.80
2018-06-25T13:53:05.485Z,0.60
2018-06-25T13:55:33.942Z,0.60
2018-06-25T13:58:02.552Z,0.72
2018-06-25T14:00:31.052Z,0.75
2018-06-25T14:02:59.476Z,0.65
2018-06-25T14:05:28.205Z,0.70
2018-06-25T14:07:56.635Z,0.60
2018-06-25T14:10:25.077Z,0.60
2018-06-25T14:12:53.592Z,0.78
2018-06-25T14:15:22.193Z,0.60
2018-06-25T14:17:50.633Z,0.60
2018-06-25T14:20:19.137Z,0.70
2018-06-25T14:22:47.646Z,0.50
2018-06-25T14:25:16.283Z,0.57
2018-06-25T14:27:50.194Z,0.70
2018-06-25T14:30:24.018Z,0.70
2018-06-25T14:33:03.179Z,0.62
2018-06-25T14:35:31.915Z,0.50
2018-06-25T14:38:00.404Z,0.68
2018-06-25T14:40:28.918Z,0.60
2018-06-25T14:42:57.329Z,0.70
2018-06-25T14:45:25.738Z,0.72
2018-06-25T14:47:54.227Z,0.57
2018-06-25T14:50:22.701Z,0.60
2018-06-25T14:52:51.164Z,0.42
2018-06-25T14:55:19.569Z,0.60
2018-06-25T14:57:47.992Z,0.70
2018-06-25T15:00:21.906Z,0.47
2018-06-25T15:02:51.460Z,0.50
2018-06-25T15:05:19.970Z,0.50
2018-06-25T15:07:48.402Z,0.50
2018-06-25T15:10:16.852Z,0.50
2018-06-25T15:12:45.289Z,0.57
2018-06-25T15:15:13.820Z,0.60
2018-06-25T15:17:42.279Z,0.60
2018-06-25T15:20:10.773Z,0.53
2018-06-25T15:22:39.141Z,0.70
2018-06-25T15:25:07.617Z,0.70
2018-06-25T15:27:36.025Z,0.65
2018-06-25T15:30:05.228Z,0.50
2018-06-25T15:32:34.289Z,0.70
2018-06-25T15:35:02.761Z,0.53
2018-06-25T15:37:31.226Z,0.60
2018-06-25T15:39:59.744Z,0.70
2018-06-25T15:42:28.221Z,0.45
2018-06-25T15:44:56.664Z,0.50
2018-06-25T15:47:24.810Z,0.40
2018-06-25T15:49:53.243Z,0.60
2018-06-25T15:52:21.739Z,0.55
2018-06-25T15:54:50.181Z,0.60
2018-06-25T15:57:18.601Z,0.55
2018-06-25T15:59:47.065Z,0.60
2018-06-25T16:02:15.551Z,0.50
2018-06-25T16:04:44.069Z,0.50
2018-06-25T16:07:12.509Z,0.53
2018-06-25T16:09:40.982Z,0.45
2018-06-25T16:12:09.437Z,0.60
2018-06-25T16:14:37.897Z,0.70
2018-06-25T16:17:06.326Z,1.15
2018-06-25T16:19:34.749Z,0.80
2018-06-25T16:22:03.177Z,0.40
2018-06-25T16:24:31.381Z,0.75
2018-06-25T16:26:59.804Z,0.65
2018-06-25T16:29:28.286Z,0.85
2018-06-25T16:31:56.689Z,0.75
2018-06-25T16:34:25.140Z,0.50
2018-06-25T16:36:53.638Z,0.70
2018-06-25T16:39:22.093Z,0.70
2018-06-25T16:41:50.560Z,0.50
2018-06-25T16:44:18.996Z,0.78
2018-06-25T16:46:47.641Z,0.70
2018-06-25T16:49:16.047Z,0.65
2018-06-25T16:51:44.470Z,0.60
2018-06-25T16:54:12.852Z,0.68
2018-06-25T16:56:41.288Z,0.70
2018-06-25T16:59:09.700Z,0.60
2018-06-25T17:01:38.128Z,0.50
2018-06-25T17:04:06.597Z,0.55
2018-06-25T17:06:35.111Z,0.60
2018-06-25T17:09:03.636Z,0.50
2018-06-25T17:11:32.092Z,0.60
2018-06-25T17:14:00.479Z,0.60
2018-06-25T17:16:29.082Z,0.60
2018-06-25T17:18:57.496Z,0.45
2018-06-25T17:21:25.944Z,0.80
2018-06-25T17:23:54.382Z,0.50
2018-06-25T17:26:22.864Z,0.70
2018-06-25T17:28:51.285Z,0.70
2018-06-25T17:31:19.764Z,0.75
2018-06-25T17:33:48.148Z,0.65
2018-06-25T17:36:16.597Z,0.50
2018-06-25T17:38:45.069Z,0.72
2018-06-25T17:41:13.492Z,0.55
2018-06-25T17:43:41.904Z,0.60
2018-06-25T17:46:10.381Z,0.60
2018-06-25T17:48:38.802Z,0.53
2018-06-25T17:51:07.276Z,0.55
2018-06-25T17:53:35.728Z,0.90
2018-06-25T17:56:04.269Z,0.50
2018-06-25T17:58:32.656Z,0.88
2018-06-25T18:01:01.241Z,0.70
2018-06-25T18:03:29.648Z,0.88
2018-06-25T18:05:58.332Z,0.82
2018-06-25T18:08:26.816Z,0.90
2018-06-25T18:10:55.277Z,0.62
2018-06-25T18:13:23.709Z,0.70
2018-06-25T18:15:52.201Z,0.65
2018-06-25T18:18:20.669Z,0.65
2018-06-25T18:20:49.231Z,0.70
2018-06-25T18:23:17.585Z,0.85
2018-06-25T18:25:46.065Z,0.88
2018-06-25T18:28:14.568Z,1.00
2018-06-25T18:30:43.034Z,0.85
2018-06-25T18:33:11.457Z,0.88
2018-06-25T18:35:39.928Z,0.85
2018-06-25T18:38:08.499Z,0.90
2018-06-25T18:40:36.954Z,0.70
2018-06-25T18:43:05.464Z,0.82
2018-06-25T18:45:33.909Z,0.80
2018-06-25T18:48:02.389Z,0.62
2018-06-25T18:50:30.829Z,0.80
2018-06-25T18:52:59.271Z,1.10
2018-06-25T18:55:27.760Z,0.90
2018-06-25T18:57:56.204Z,0.90
2018-06-25T19:00:25.433Z,0.93
2018-06-25T19:02:53.901Z,1.20
2018-06-25T19:05:22.484Z,1.22
2018-06-25T19:07:51.062Z,1.02
2018-06-25T19:10:19.496Z,0.70
2018-06-25T19:12:47.981Z,0.80
2018-06-25T19:15:16.415Z,0.90
2018-06-25T19:17:44.581Z,0.93
2018-06-25T19:20:13.021Z,0.70
2018-06-25T19:22:41.449Z,0.98
2018-06-25T19:25:09.863Z,1.20
2018-06-25T19:27:38.362Z,0.90
2018-06-25T19:30:06.886Z,1.07
2018-06-25T19:32:35.332Z,1.02
2018-06-25T19:35:03.812Z,1.00
2018-06-25T19:37:32.404Z,1.00
2018-06-25T19:40:00.838Z,0.93
2018-06-25T19:42:29.264Z,1.00
2018-06-25T19:44:57.774Z,0.90
2018-06-25T19:47:26.189Z,1.30
2018-06-25T19:49:54.631Z,0.90
2018-06-25T19:52:23.074Z,1.00
2018-06-25T19:54:51.489Z,1.02
2018-06-25T19:57:19.969Z,0.90
2018-06-25T19:59:48.440Z,1.07
2018-06-25T20:02:16.852Z,0.95
2018-06-25T20:04:45.761Z,1.12
2018-06-25T20:07:13.926Z,1.10
2018-06-25T20:09:42.379Z,1.00
2018-06-25T20:12:10.825Z,0.72
2018-06-25T20:14:39.329Z,1.05
2018-06-25T20:17:07.829Z,1.10
2018-06-25T20:19:36.291Z,1.10
2018-06-25T20:22:04.867Z,1.47
2018-06-25T20:24:33.278Z,1.52
2018-06-25T20:27:01.762Z,1.30
2018-06-25T20:29:30.232Z,1.20
2018-06-25T20:31:58.756Z,1.10
2018-06-25T20:34:27.261Z,1.47
2018-06-25T20:36:55.728Z,1.20
2018-06-25T20:39:25.046Z,1.27
2018-06-25T20:41:53.481Z,1.10
2018-06-25T20:44:21.928Z,1.32
2018-06-25T20:46:50.409Z,1.27
2018-06-25T20:49:18.836Z,1.20
2018-06-25T20:51:47.251Z,1.40
2018-06-25T20:54:15.731Z,1.10
2018-06-25T20:56:44.229Z,1.40
2018-06-25T20:59:12.666Z,1.00
2018-06-25T21:01:41.072Z,1.00
2018-06-25T21:04:09.526Z,1.20
2018-06-25T21:06:37.969Z,1.20
2018-06-25T21:09:08.872Z,1.30
2018-06-25T21:11:37.325Z,1.20
2018-06-25T21:14:06.085Z,1.27
2018-06-25T21:16:34.642Z,1.30
2018-06-25T21:19:03.164Z,1.25
2018-06-25T21:21:31.605Z,1.37
2018-06-25T21:24:00.056Z,1.27
2018-06-25T21:26:28.493Z,1.47
2018-06-25T21:28:56.945Z,1.47
2018-06-25T21:31:25.391Z,1.30
2018-06-25T21:33:53.841Z,1.20
2018-06-25T21:36:21.970Z,1.72
2018-06-25T21:38:50.401Z,1.70
2018-06-25T21:41:18.810Z,1.32
2018-06-25T21:43:47.311Z,1.37
2018-06-25T21:46:15.730Z,1.47
2018-06-25T21:48:44.237Z,1.47
2018-06-25T21:51:12.689Z,1.42
2018-06-25T21:53:41.164Z,1.37
2018-06-25T21:56:09.584Z,1.62
2018-06-25T21:58:38.042Z,1.30
2018-06-25T22:01:06.486Z,1.47
2018-06-25T22:03:34.970Z,1.30
2018-06-25T22:06:03.404Z,1.30
2018-06-25T22:08:31.821Z,1.40
2018-06-25T22:11:00.272Z,1.27
2018-06-25T22:13:28.712Z,1.17
2018-06-25T22:15:57.172Z,1.60
2018-06-25T22:18:25.613Z,1.55
2018-06-25T22:20:54.125Z,1.47
2018-06-25T22:23:22.638Z,1.37
2018-06-25T22:25:51.127Z,1.52
2018-06-25T22:28:19.579Z,1.30
2018-06-25T22:30:48.017Z,1.40
2018-06-25T22:33:16.529Z,1.47
2018-06-25T22:35:44.977Z,1.37
2018-06-25T22:38:13.395Z,1.50
2018-06-25T22:40:41.857Z,2.05
2018-06-25T22:43:10.328Z,1.32
2018-06-25T22:45:38.777Z,1.67
2018-06-25T22:48:07.253Z,1.62
2018-06-25T22:50:35.709Z,1.35
2018-06-25T22:53:04.121Z,1.00
2018-06-25T22:55:33.427Z,1.27
2018-06-25T22:58:02.082Z,1.60
2018-06-25T23:00:30.977Z,1.17
2018-06-25T23:02:59.509Z,1.20
2018-06-25T23:05:28.007Z,1.30
2018-06-25T23:07:56.412Z,1.50
2018-06-25T23:10:25.200Z,1.30
2018-06-25T23:12:53.740Z,1.20
2018-06-25T23:15:22.201Z,1.72
2018-06-25T23:17:50.661Z,1.30
2018-06-25T23:20:19.119Z,1.55
2018-06-25T23:22:51.748Z,1.22
2018-06-25T23:25:20.222Z,1.37
2018-06-25T23:27:48.633Z,1.50
2018-06-25T23:30:17.089Z,1.50
2018-06-25T23:32:45.585Z,1.52
2018-06-25T23:35:14.016Z,1.42
2018-06-25T23:37:42.456Z,1.47
2018-06-25T23:40:10.935Z,1.57
2018-06-25T23:42:39.441Z,1.47
2018-06-25T23:45:08.095Z,1.45
2018-06-25T23:47:36.513Z,1.37
2018-06-25T23:50:05.273Z,1.37
2018-06-25T23:52:33.725Z,1.62
2018-06-25T23:55:02.159Z,1.30
2018-06-25T23:57:30.641Z,1.67
2018-06-25T23:59:59.071Z,1.40
